sensor_id;sensor_type;location;lat;lon;timestamp;pressure;altitude;pressure_sealevel;temperature;humidity
63819;BME280;49970;54.976;73.248;2022-09-24T00:01:55;100817.31;;;12.90;64.43
63819;BME280;49970;54.976;73.248;2022-09-24T00:04:24;100809.25;;;12.92;64.72
63819;BME280;49970;54.976;73.248;2022-09-24T00:06:50;100804.25;;;12.87;64.63
63819;BME280;49970;54.976;73.248;2022-09-24T00:09:19;100810.19;;;12.91;64.80
63819;BME280;49970;54.976;73.248;2022-09-24T00:11:51;100801.59;;;12.87;64.86
63819;BME280;49970;54.976;73.248;2022-09-24T00:14:24;100805.22;;;12.86;65.03
63819;BME280;49970;54.976;73.248;2022-09-24T00:16:50;100796.72;;;12.81;64.85
63819;BME280;49970;54.976;73.248;2022-09-24T00:19:17;100796.84;;;12.80;65.07
63819;BME280;49970;54.976;73.248;2022-09-24T00:21:43;100796.00;;;12.79;65.08
63819;BME280;49970;54.976;73.248;2022-09-24T00:24:13;100794.06;;;12.81;64.94
63819;BME280;49970;54.976;73.248;2022-09-24T00:26:59;100795.13;;;12.79;65.26
63819;BME280;49970;54.976;73.248;2022-09-24T00:29:28;100787.16;;;12.79;65.16
63819;BME280;49970;54.976;73.248;2022-09-24T00:32:02;100774.00;;;12.77;65.00
63819;BME280;49970;54.976;73.248;2022-09-24T00:34:30;100777.63;;;12.76;64.94
63819;BME280;49970;54.976;73.248;2022-09-24T00:36:56;100775.94;;;12.75;65.30
63819;BME280;49970;54.976;73.248;2022-09-24T00:39:22;100771.53;;;12.74;65.03
63819;BME280;49970;54.976;73.248;2022-09-24T00:41:48;100775.38;;;12.70;65.28
63819;BME280;49970;54.976;73.248;2022-09-24T00:47:31;100769.69;;;12.63;65.61
63819;BME280;49970;54.976;73.248;2022-09-24T00:52:38;100770.19;;;12.68;65.22
63819;BME280;49970;54.976;73.248;2022-09-24T00:55:07;100764.25;;;12.65;65.42
63819;BME280;49970;54.976;73.248;2022-09-24T00:57:33;100767.31;;;12.71;65.45
63819;BME280;49970;54.976;73.248;2022-09-24T01:00:00;100763.81;;;12.71;65.32
63819;BME280;49970;54.976;73.248;2022-09-24T01:02:26;100757.75;;;12.69;65.70
63819;BME280;49970;54.976;73.248;2022-09-24T01:04:53;100765.16;;;12.77;65.51
63819;BME280;49970;54.976;73.248;2022-09-24T01:07:19;100753.69;;;12.76;65.16
63819;BME280;49970;54.976;73.248;2022-09-24T01:09:45;100745.81;;;12.75;65.18
63819;BME280;49970;54.976;73.248;2022-09-24T01:15:24;100745.94;;;12.73;65.62
63819;BME280;49970;54.976;73.248;2022-09-24T01:18:11;100746.78;;;12.74;65.42
63819;BME280;49970;54.976;73.248;2022-09-24T01:21:19;100741.59;;;12.72;65.54
63819;BME280;49970;54.976;73.248;2022-09-24T01:24:29;100735.22;;;12.62;65.64
63819;BME280;49970;54.976;73.248;2022-09-24T01:27:29;100739.34;;;12.66;65.53
63819;BME280;49970;54.976;73.248;2022-09-24T01:32:29;100734.78;;;12.68;65.64
63819;BME280;49970;54.976;73.248;2022-09-24T01:35:22;100742.25;;;12.63;65.69
63819;BME280;49970;54.976;73.248;2022-09-24T01:38:16;100744.78;;;12.64;65.73
63819;BME280;49970;54.976;73.248;2022-09-24T01:40:45;100729.31;;;12.58;65.65
63819;BME280;49970;54.976;73.248;2022-09-24T01:43:24;100717.94;;;12.56;65.94
63819;BME280;49970;54.976;73.248;2022-09-24T01:45:54;100737.88;;;12.62;65.94
63819;BME280;49970;54.976;73.248;2022-09-24T01:48:24;100730.66;;;12.64;66.22
63819;BME280;49970;54.976;73.248;2022-09-24T01:51:01;100727.25;;;12.62;65.99
63819;BME280;49970;54.976;73.248;2022-09-24T01:53:40;100722.56;;;12.65;66.03
63819;BME280;49970;54.976;73.248;2022-09-24T01:56:22;100724.25;;;12.66;66.02
63819;BME280;49970;54.976;73.248;2022-09-24T01:59:56;100721.38;;;12.69;66.13
63819;BME280;49970;54.976;73.248;2022-09-24T02:02:05;100710.13;;;12.66;66.23
63819;BME280;49970;54.976;73.248;2022-09-24T02:04:37;100716.47;;;12.76;66.00
63819;BME280;49970;54.976;73.248;2022-09-24T02:07:13;100717.59;;;12.85;66.01
63819;BME280;49970;54.976;73.248;2022-09-24T02:09:50;100702.63;;;12.84;66.16
63819;BME280;49970;54.976;73.248;2022-09-24T02:12:22;100715.09;;;12.94;66.47
63819;BME280;49970;54.976;73.248;2022-09-24T02:15:01;100714.88;;;12.98;66.38
63819;BME280;49970;54.976;73.248;2022-09-24T02:17:31;100716.34;;;13.02;66.45
63819;BME280;49970;54.976;73.248;2022-09-24T02:20:02;100709.00;;;13.05;66.55
63819;BME280;49970;54.976;73.248;2022-09-24T02:22:30;100706.97;;;13.09;66.51
63819;BME280;49970;54.976;73.248;2022-09-24T02:25:00;100687.47;;;13.08;66.18
63819;BME280;49970;54.976;73.248;2022-09-24T02:27:36;100698.81;;;13.23;66.04
63819;BME280;49970;54.976;73.248;2022-09-24T02:30:04;100694.59;;;13.32;66.42
63819;BME280;49970;54.976;73.248;2022-09-24T02:32:41;100688.91;;;13.36;66.10
63819;BME280;49970;54.976;73.248;2022-09-24T02:35:18;100680.56;;;13.41;66.28
63819;BME280;49970;54.976;73.248;2022-09-24T02:37:54;100691.13;;;13.54;66.38
63819;BME280;49970;54.976;73.248;2022-09-24T02:40:25;100688.72;;;13.62;66.56
63819;BME280;49970;54.976;73.248;2022-09-24T02:42:57;100676.88;;;13.77;66.32
63819;BME280;49970;54.976;73.248;2022-09-24T02:45:24;100683.66;;;13.92;65.76
63819;BME280;49970;54.976;73.248;2022-09-24T02:47:50;100674.34;;;14.09;65.49
63819;BME280;49970;54.976;73.248;2022-09-24T02:50:17;100668.34;;;14.28;65.14
63819;BME280;49970;54.976;73.248;2022-09-24T02:52:52;100675.47;;;14.50;64.59
63819;BME280;49970;54.976;73.248;2022-09-24T02:55:29;100667.53;;;14.71;64.03
63819;BME280;49970;54.976;73.248;2022-09-24T02:57:55;100672.34;;;14.88;63.47
63819;BME280;49970;54.976;73.248;2022-09-24T03:00:26;100674.44;;;15.06;63.10
63819;BME280;49970;54.976;73.248;2022-09-24T03:03:04;100674.84;;;15.22;62.84
63819;BME280;49970;54.976;73.248;2022-09-24T03:05:40;100671.69;;;15.38;61.84
63819;BME280;49970;54.976;73.248;2022-09-24T03:08:18;100670.22;;;15.55;61.80
63819;BME280;49970;54.976;73.248;2022-09-24T03:10:44;100667.97;;;15.71;61.54
63819;BME280;49970;54.976;73.248;2022-09-24T03:13:12;100657.06;;;15.84;60.78
63819;BME280;49970;54.976;73.248;2022-09-24T03:15:39;100656.13;;;15.94;60.70
63819;BME280;49970;54.976;73.248;2022-09-24T03:18:05;100657.13;;;16.03;61.08
63819;BME280;49970;54.976;73.248;2022-09-24T03:20:31;100653.06;;;16.09;60.58
63819;BME280;49970;54.976;73.248;2022-09-24T03:23:03;100630.44;;;16.13;60.66
63819;BME280;49970;54.976;73.248;2022-09-24T03:25:40;100645.94;;;16.29;59.92
63819;BME280;49970;54.976;73.248;2022-09-24T03:28:16;100650.03;;;16.42;59.78
63819;BME280;49970;54.976;73.248;2022-09-24T03:30:43;100642.91;;;16.53;59.71
63819;BME280;49970;54.976;73.248;2022-09-24T03:33:35;100631.19;;;16.63;59.42
63819;BME280;49970;54.976;73.248;2022-09-24T03:36:04;100641.81;;;16.75;59.42
63819;BME280;49970;54.976;73.248;2022-09-24T03:38:38;100651.38;;;16.87;59.06
63819;BME280;49970;54.976;73.248;2022-09-24T03:41:05;100646.56;;;17.00;58.47
63819;BME280;49970;54.976;73.248;2022-09-24T03:43:33;100639.81;;;17.15;58.38
63819;BME280;49970;54.976;73.248;2022-09-24T03:46:00;100637.81;;;17.27;58.36
63819;BME280;49970;54.976;73.248;2022-09-24T03:48:27;100647.06;;;17.42;57.67
63819;BME280;49970;54.976;73.248;2022-09-24T03:51:13;100639.97;;;17.51;57.40
63819;BME280;49970;54.976;73.248;2022-09-24T03:53:40;100639.13;;;17.60;57.40
63819;BME280;49970;54.976;73.248;2022-09-24T03:56:07;100635.41;;;17.71;56.59
63819;BME280;49970;54.976;73.248;2022-09-24T03:58:35;100639.78;;;17.72;56.33
63819;BME280;49970;54.976;73.248;2022-09-24T04:01:03;100637.69;;;17.76;55.95
63819;BME280;49970;54.976;73.248;2022-09-24T04:03:29;100638.09;;;17.81;56.48
63819;BME280;49970;54.976;73.248;2022-09-24T04:05:56;100638.19;;;17.89;56.07
63819;BME280;49970;54.976;73.248;2022-09-24T04:08:22;100630.69;;;17.92;55.58
63819;BME280;49970;54.976;73.248;2022-09-24T04:10:50;100624.34;;;17.94;55.83
63819;BME280;49970;54.976;73.248;2022-09-24T04:13:17;100624.28;;;18.03;55.67
63819;BME280;49970;54.976;73.248;2022-09-24T04:15:54;100622.56;;;18.12;55.23
63819;BME280;49970;54.976;73.248;2022-09-24T04:18:20;100614.59;;;18.20;55.28
63819;BME280;49970;54.976;73.248;2022-09-24T04:20:47;100615.28;;;18.22;54.88
63819;BME280;49970;54.976;73.248;2022-09-24T04:23:16;100613.13;;;18.26;55.19
63819;BME280;49970;54.976;73.248;2022-09-24T04:25:46;100609.88;;;18.32;55.00
63819;BME280;49970;54.976;73.248;2022-09-24T04:28:16;100611.09;;;18.37;54.65
63819;BME280;49970;54.976;73.248;2022-09-24T04:30:42;100599.34;;;18.38;55.20
63819;BME280;49970;54.976;73.248;2022-09-24T04:33:08;100604.13;;;18.45;55.03
63819;BME280;49970;54.976;73.248;2022-09-24T04:35:35;100603.66;;;18.49;54.80
63819;BME280;49970;54.976;73.248;2022-09-24T04:38:04;100598.38;;;18.57;55.00
63819;BME280;49970;54.976;73.248;2022-09-24T04:40:33;100596.72;;;18.74;55.08
63819;BME280;49970;54.976;73.248;2022-09-24T04:43:01;100591.13;;;18.85;54.67
63819;BME280;49970;54.976;73.248;2022-09-24T04:45:27;100592.22;;;19.01;54.50
63819;BME280;49970;54.976;73.248;2022-09-24T04:47:53;100585.59;;;19.13;54.41
63819;BME280;49970;54.976;73.248;2022-09-24T04:50:33;100587.31;;;19.22;54.49
63819;BME280;49970;54.976;73.248;2022-09-24T04:53:05;100587.53;;;19.29;54.88
63819;BME280;49970;54.976;73.248;2022-09-24T04:55:32;100582.69;;;19.32;54.28
63819;BME280;49970;54.976;73.248;2022-09-24T04:58:01;100575.00;;;19.37;54.03
63819;BME280;49970;54.976;73.248;2022-09-24T05:00:35;100574.03;;;19.47;53.97
63819;BME280;49970;54.976;73.248;2022-09-24T05:03:02;100567.03;;;19.54;54.06
63819;BME280;49970;54.976;73.248;2022-09-24T05:05:29;100571.16;;;19.66;54.39
63819;BME280;49970;54.976;73.248;2022-09-24T05:08:04;100565.84;;;19.82;54.28
63819;BME280;49970;54.976;73.248;2022-09-24T05:10:31;100560.00;;;19.95;53.77
63819;BME280;49970;54.976;73.248;2022-09-24T05:12:58;100562.84;;;20.02;53.65
63819;BME280;49970;54.976;73.248;2022-09-24T05:15:24;100558.19;;;20.12;53.61
63819;BME280;49970;54.976;73.248;2022-09-24T05:17:51;100549.13;;;20.21;53.74
63819;BME280;49970;54.976;73.248;2022-09-24T05:20:18;100544.78;;;20.28;53.53
63819;BME280;49970;54.976;73.248;2022-09-24T05:22:46;100537.88;;;20.34;53.84
63819;BME280;49970;54.976;73.248;2022-09-24T05:25:15;100539.41;;;20.45;53.79
63819;BME280;49970;54.976;73.248;2022-09-24T05:27:59;100529.50;;;20.53;54.31
63819;BME280;49970;54.976;73.248;2022-09-24T05:30:26;100521.25;;;20.71;54.69
63819;BME280;49970;54.976;73.248;2022-09-24T05:32:52;100519.88;;;20.92;54.72
63819;BME280;49970;54.976;73.248;2022-09-24T05:35:20;100521.19;;;21.12;55.00
63819;BME280;49970;54.976;73.248;2022-09-24T05:37:48;100519.94;;;21.31;54.65
63819;BME280;49970;54.976;73.248;2022-09-24T05:40:15;100515.34;;;21.48;54.02
63819;BME280;49970;54.976;73.248;2022-09-24T05:43:00;100506.59;;;21.54;54.00
63819;BME280;49970;54.976;73.248;2022-09-24T05:45:28;100507.72;;;21.59;54.26
63819;BME280;49970;54.976;73.248;2022-09-24T05:47:54;100512.91;;;21.69;54.07
63819;BME280;49970;54.976;73.248;2022-09-24T05:50:21;100513.03;;;21.76;53.69
63819;BME280;49970;54.976;73.248;2022-09-24T05:52:47;100497.69;;;21.76;53.76
63819;BME280;49970;54.976;73.248;2022-09-24T05:55:14;100499.31;;;21.85;53.80
63819;BME280;49970;54.976;73.248;2022-09-24T05:57:40;100493.53;;;21.97;53.35
63819;BME280;49970;54.976;73.248;2022-09-24T06:00:06;100493.28;;;22.06;53.66
63819;BME280;49970;54.976;73.248;2022-09-24T06:02:39;100491.41;;;22.15;53.63
63819;BME280;49970;54.976;73.248;2022-09-24T06:05:06;100493.69;;;22.26;52.95
63819;BME280;49970;54.976;73.248;2022-09-24T06:07:32;100489.63;;;22.30;53.59
63819;BME280;49970;54.976;73.248;2022-09-24T06:09:58;100487.03;;;22.37;53.55
63819;BME280;49970;54.976;73.248;2022-09-24T06:12:26;100488.66;;;22.46;53.10
63819;BME280;49970;54.976;73.248;2022-09-24T06:14:52;100478.59;;;22.55;53.41
63819;BME280;49970;54.976;73.248;2022-09-24T06:17:21;100481.44;;;22.61;53.32
63819;BME280;49970;54.976;73.248;2022-09-24T06:19:48;100480.31;;;22.71;52.91
63819;BME280;49970;54.976;73.248;2022-09-24T06:22:14;100486.66;;;22.78;53.07
63819;BME280;49970;54.976;73.248;2022-09-24T06:24:40;100481.34;;;22.84;52.01
63819;BME280;49970;54.976;73.248;2022-09-24T06:27:07;100474.56;;;22.88;52.64
63819;BME280;49970;54.976;73.248;2022-09-24T06:32:02;100467.00;;;22.84;52.53
63819;BME280;49970;54.976;73.248;2022-09-24T06:34:29;100469.72;;;22.84;52.06
63819;BME280;49970;54.976;73.248;2022-09-24T06:36:55;100463.47;;;22.83;52.71
63819;BME280;49970;54.976;73.248;2022-09-24T06:39:24;100462.91;;;22.88;52.86
63819;BME280;49970;54.976;73.248;2022-09-24T06:41:56;100459.03;;;22.91;53.00
63819;BME280;49970;54.976;73.248;2022-09-24T06:44:23;100455.50;;;22.90;53.23
63819;BME280;49970;54.976;73.248;2022-09-24T06:46:50;100451.59;;;22.93;53.31
63819;BME280;49970;54.976;73.248;2022-09-24T06:49:16;100450.19;;;22.97;52.97
63819;BME280;49970;54.976;73.248;2022-09-24T06:51:42;100445.44;;;22.99;53.09
63819;BME280;49970;54.976;73.248;2022-09-24T06:54:08;100450.09;;;23.05;53.05
63819;BME280;49970;54.976;73.248;2022-09-24T06:56:34;100445.63;;;23.12;52.83
63819;BME280;49970;54.976;73.248;2022-09-24T06:59:01;100432.84;;;23.21;53.06
63819;BME280;49970;54.976;73.248;2022-09-24T07:01:27;100433.38;;;23.31;52.74
63819;BME280;49970;54.976;73.248;2022-09-24T07:03:53;100430.56;;;23.39;53.56
63819;BME280;49970;54.976;73.248;2022-09-24T07:06:29;100429.63;;;23.47;53.13
63819;BME280;49970;54.976;73.248;2022-09-24T07:09:15;100426.16;;;23.53;52.83
63819;BME280;49970;54.976;73.248;2022-09-24T07:11:49;100429.69;;;23.68;52.33
63819;BME280;49970;54.976;73.248;2022-09-24T07:14:15;100428.53;;;23.77;53.06
63819;BME280;49970;54.976;73.248;2022-09-24T07:16:41;100419.00;;;23.81;51.99
63819;BME280;49970;54.976;73.248;2022-09-24T07:19:08;100417.78;;;23.84;51.72
63819;BME280;49970;54.976;73.248;2022-09-24T07:21:34;100402.78;;;23.81;51.41
63819;BME280;49970;54.976;73.248;2022-09-24T07:24:00;100413.72;;;23.95;51.58
63819;BME280;49970;54.976;73.248;2022-09-24T07:26:28;100415.47;;;24.02;51.16
63819;BME280;49970;54.976;73.248;2022-09-24T07:28:54;100413.00;;;24.07;51.09
63819;BME280;49970;54.976;73.248;2022-09-24T07:31:20;100407.41;;;24.09;51.03
63819;BME280;49970;54.976;73.248;2022-09-24T07:33:47;100406.38;;;24.10;51.43
63819;BME280;49970;54.976;73.248;2022-09-24T07:36:13;100393.69;;;24.10;51.65
63819;BME280;49970;54.976;73.248;2022-09-24T07:38:40;100385.38;;;24.12;51.58
63819;BME280;49970;54.976;73.248;2022-09-24T07:41:08;100388.94;;;24.13;51.55
63819;BME280;49970;54.976;73.248;2022-09-24T07:43:43;100380.59;;;24.14;51.40
63819;BME280;49970;54.976;73.248;2022-09-24T07:46:09;100381.63;;;24.13;50.24
63819;BME280;49970;54.976;73.248;2022-09-24T07:48:43;100366.44;;;24.12;50.51
63819;BME280;49970;54.976;73.248;2022-09-24T07:51:09;100368.72;;;24.15;50.42
63819;BME280;49970;54.976;73.248;2022-09-24T07:53:36;100365.56;;;24.11;49.84
63819;BME280;49970;54.976;73.248;2022-09-24T07:56:03;100372.09;;;24.17;50.15
63819;BME280;49970;54.976;73.248;2022-09-24T07:58:30;100364.81;;;24.18;51.03
63819;BME280;49970;54.976;73.248;2022-09-24T08:01:00;100371.44;;;24.15;51.72
63819;BME280;49970;54.976;73.248;2022-09-24T08:03:26;100359.34;;;24.11;51.53
63819;BME280;49970;54.976;73.248;2022-09-24T08:05:52;100360.13;;;24.05;51.39
63819;BME280;49970;54.976;73.248;2022-09-24T08:08:23;100356.97;;;24.01;50.96
63819;BME280;49970;54.976;73.248;2022-09-24T08:10:54;100362.78;;;23.98;51.94
63819;BME280;49970;54.976;73.248;2022-09-24T08:13:20;100350.66;;;23.94;52.25
63819;BME280;49970;54.976;73.248;2022-09-24T08:15:47;100350.66;;;23.94;51.24
63819;BME280;49970;54.976;73.248;2022-09-24T08:18:13;100357.94;;;23.94;51.32
63819;BME280;49970;54.976;73.248;2022-09-24T08:20:39;100354.63;;;23.92;50.76
63819;BME280;49970;54.976;73.248;2022-09-24T08:23:07;100351.06;;;23.91;51.77
63819;BME280;49970;54.976;73.248;2022-09-24T08:25:42;100335.38;;;23.80;52.69
63819;BME280;49970;54.976;73.248;2022-09-24T08:28:15;100342.22;;;23.82;51.27
63819;BME280;49970;54.976;73.248;2022-09-24T08:30:45;100342.22;;;23.82;53.42
63819;BME280;49970;54.976;73.248;2022-09-24T08:33:11;100345.34;;;23.79;52.72
63819;BME280;49970;54.976;73.248;2022-09-24T08:35:58;100349.47;;;23.75;53.91
63819;BME280;49970;54.976;73.248;2022-09-24T08:39:48;100345.94;;;23.75;52.21
63819;BME280;49970;54.976;73.248;2022-09-24T08:43:34;100334.69;;;23.78;53.28
63819;BME280;49970;54.976;73.248;2022-09-24T08:50:55;100321.19;;;23.78;51.31
63819;BME280;49970;54.976;73.248;2022-09-24T08:54:45;100320.41;;;23.84;50.18
63819;BME280;49970;54.976;73.248;2022-09-24T08:59:29;100318.53;;;23.84;51.38
63819;BME280;49970;54.976;73.248;2022-09-24T09:03:11;100309.78;;;23.82;51.24
63819;BME280;49970;54.976;73.248;2022-09-24T09:08:42;100305.50;;;23.95;50.67
63819;BME280;49970;54.976;73.248;2022-09-24T09:11:15;100302.88;;;24.01;50.24
63819;BME280;49970;54.976;73.248;2022-09-24T09:13:52;100300.59;;;24.05;50.93
63819;BME280;49970;54.976;73.248;2022-09-24T09:16:24;100302.50;;;24.11;49.34
63819;BME280;49970;54.976;73.248;2022-09-24T09:18:57;100299.41;;;24.14;50.89
63819;BME280;49970;54.976;73.248;2022-09-24T09:21:42;100290.06;;;24.17;49.43
63819;BME280;49970;54.976;73.248;2022-09-24T09:24:17;100286.94;;;24.20;50.15
63819;BME280;49970;54.976;73.248;2022-09-24T09:26:48;100278.03;;;24.26;49.45
63819;BME280;49970;54.976;73.248;2022-09-24T09:29:16;100286.41;;;24.31;49.42
63819;BME280;49970;54.976;73.248;2022-09-24T09:34:57;100282.66;;;24.32;49.41
63819;BME280;49970;54.976;73.248;2022-09-24T09:42:49;100265.06;;;24.43;47.58
63819;BME280;49970;54.976;73.248;2022-09-24T09:48:47;100270.06;;;24.46;48.25
63819;BME280;49970;54.976;73.248;2022-09-24T09:51:32;100269.22;;;24.45;48.07
63819;BME280;49970;54.976;73.248;2022-09-24T09:54:05;100271.75;;;24.47;47.86
63819;BME280;49970;54.976;73.248;2022-09-24T09:56:45;100269.88;;;24.47;47.78
63819;BME280;49970;54.976;73.248;2022-09-24T10:01:40;100259.47;;;24.51;48.20
63819;BME280;49970;54.976;73.248;2022-09-24T10:04:35;100246.56;;;24.53;48.46
63819;BME280;49970;54.976;73.248;2022-09-24T10:07:14;100244.50;;;24.55;48.13
63819;BME280;49970;54.976;73.248;2022-09-24T10:13:08;100240.97;;;24.61;48.79
63819;BME280;49970;54.976;73.248;2022-09-24T10:15:57;100234.72;;;24.60;47.96
63819;BME280;49970;54.976;73.248;2022-09-24T10:18:44;100239.72;;;24.64;47.69
63819;BME280;49970;54.976;73.248;2022-09-24T10:21:21;100237.66;;;24.66;47.81
63819;BME280;49970;54.976;73.248;2022-09-24T10:23:49;100235.53;;;24.61;47.48
63819;BME280;49970;54.976;73.248;2022-09-24T10:26:16;100235.13;;;24.57;46.53
63819;BME280;49970;54.976;73.248;2022-09-24T10:28:47;100227.25;;;24.63;46.11
63819;BME280;49970;54.976;73.248;2022-09-24T10:31:38;100224.31;;;24.64;45.96
63819;BME280;49970;54.976;73.248;2022-09-24T10:34:27;100211.59;;;24.65;46.89
63819;BME280;49970;54.976;73.248;2022-09-24T10:37:03;100200.13;;;24.56;46.90
63819;BME280;49970;54.976;73.248;2022-09-24T10:39:30;100200.34;;;24.61;48.62
63819;BME280;49970;54.976;73.248;2022-09-24T10:42:01;100204.72;;;24.55;47.25
63819;BME280;49970;54.976;73.248;2022-09-24T10:44:37;100199.69;;;24.52;47.75
63819;BME280;49970;54.976;73.248;2022-09-24T10:52:46;100199.84;;;24.38;49.15
63819;BME280;49970;54.976;73.248;2022-09-24T10:58:06;100194.13;;;24.26;50.80
63819;BME280;49970;54.976;73.248;2022-09-24T11:03:52;100185.75;;;24.14;49.31
63819;BME280;49970;54.976;73.248;2022-09-24T11:17:33;100173.97;;;23.94;52.20
63819;BME280;49970;54.976;73.248;2022-09-24T11:25:38;100167.50;;;23.88;51.91
63819;BME280;49970;54.976;73.248;2022-09-24T11:28:54;100155.41;;;23.84;50.30
63819;BME280;49970;54.976;73.248;2022-09-24T11:34:44;100159.19;;;23.90;50.72
63819;BME280;49970;54.976;73.248;2022-09-24T11:40:27;100155.41;;;23.84;52.88
63819;BME280;49970;54.976;73.248;2022-09-24T11:46:10;100153.91;;;23.75;53.86
63819;BME280;49970;54.976;73.248;2022-09-24T11:51:44;100140.66;;;23.58;53.40
63819;BME280;49970;54.976;73.248;2022-09-24T11:57:04;100133.31;;;23.46;54.50
63819;BME280;49970;54.976;73.248;2022-09-24T12:05:18;100125.94;;;23.33;51.25
63819;BME280;49970;54.976;73.248;2022-09-24T12:08:16;100120.38;;;23.41;51.01
63819;BME280;49970;54.976;73.248;2022-09-24T12:10:56;100119.38;;;23.49;50.28
63819;BME280;49970;54.976;73.248;2022-09-24T12:14:04;100121.69;;;23.52;50.21
63819;BME280;49970;54.976;73.248;2022-09-24T12:16:40;100123.16;;;23.54;49.74
63819;BME280;49970;54.976;73.248;2022-09-24T12:19:19;100123.59;;;23.58;49.56
63819;BME280;49970;54.976;73.248;2022-09-24T12:21:49;100117.16;;;23.59;49.80
63819;BME280;49970;54.976;73.248;2022-09-24T12:24:36;100113.84;;;23.64;49.62
63819;BME280;49970;54.976;73.248;2022-09-24T12:27:12;100111.16;;;23.64;50.13
63819;BME280;49970;54.976;73.248;2022-09-24T12:38:42;100093.38;;;23.48;50.86
63819;BME280;49970;54.976;73.248;2022-09-24T12:46:51;100104.72;;;23.36;54.00
63819;BME280;49970;54.976;73.248;2022-09-24T12:49:30;100107.75;;;23.20;54.73
63819;BME280;49970;54.976;73.248;2022-09-24T12:52:21;100105.97;;;23.06;54.65
63819;BME280;49970;54.976;73.248;2022-09-24T12:55:00;100102.56;;;22.97;55.28
63819;BME280;49970;54.976;73.248;2022-09-24T12:57:34;100101.19;;;22.86;57.47
63819;BME280;49970;54.976;73.248;2022-09-24T13:02:58;100094.78;;;22.66;59.25
63819;BME280;49970;54.976;73.248;2022-09-24T13:05:47;100092.00;;;22.59;59.03
63819;BME280;49970;54.976;73.248;2022-09-24T13:10:57;100087.91;;;22.27;59.35
63819;BME280;49970;54.976;73.248;2022-09-24T13:13:36;100098.19;;;22.17;59.98
63819;BME280;49970;54.976;73.248;2022-09-24T13:16:19;100094.06;;;22.06;59.80
63819;BME280;49970;54.976;73.248;2022-09-24T13:18:58;100091.69;;;21.97;60.42
63819;BME280;49970;54.976;73.248;2022-09-24T13:21:28;100089.75;;;21.91;59.36
63819;BME280;49970;54.976;73.248;2022-09-24T13:23:56;100078.59;;;21.79;59.95
63819;BME280;49970;54.976;73.248;2022-09-24T13:28:58;100081.19;;;21.72;61.24
63819;BME280;49970;54.976;73.248;2022-09-24T13:33:55;100086.78;;;21.71;61.49
63819;BME280;49970;54.976;73.248;2022-09-24T13:36:34;100086.97;;;21.69;61.17
63819;BME280;49970;54.976;73.248;2022-09-24T13:39:24;100081.03;;;21.59;61.81
63819;BME280;49970;54.976;73.248;2022-09-24T13:42:04;100076.91;;;21.48;61.80
63819;BME280;49970;54.976;73.248;2022-09-24T13:47:50;100077.25;;;21.30;62.30
63819;BME280;49970;54.976;73.248;2022-09-24T13:55:50;100065.19;;;21.11;62.86
63819;BME280;49970;54.976;73.248;2022-09-24T14:00:56;100074.38;;;21.17;63.21
63819;BME280;49970;54.976;73.248;2022-09-24T14:03:30;100072.88;;;21.14;63.18
63819;BME280;49970;54.976;73.248;2022-09-24T14:06:09;100074.63;;;21.07;63.65
63819;BME280;49970;54.976;73.248;2022-09-24T14:08:36;100063.81;;;20.93;63.88
63819;BME280;49970;54.976;73.248;2022-09-24T14:11:14;100062.34;;;20.90;64.02
63819;BME280;49970;54.976;73.248;2022-09-24T14:13:46;100075.81;;;20.90;64.26
63819;BME280;49970;54.976;73.248;2022-09-24T14:16:23;100070.94;;;20.85;64.30
63819;BME280;49970;54.976;73.248;2022-09-24T14:19:04;100068.25;;;20.85;64.03
63819;BME280;49970;54.976;73.248;2022-09-24T14:21:39;100070.31;;;20.83;64.22
63819;BME280;49970;54.976;73.248;2022-09-24T14:26:50;100066.59;;;20.84;64.44
63819;BME280;49970;54.976;73.248;2022-09-24T14:29:25;100069.94;;;20.86;64.36
63819;BME280;49970;54.976;73.248;2022-09-24T14:32:02;100063.06;;;20.84;64.03
63819;BME280;49970;54.976;73.248;2022-09-24T14:36:59;100067.81;;;20.97;60.51
63819;BME280;49970;54.976;73.248;2022-09-24T14:39:37;100066.78;;;20.98;59.75
63819;BME280;49970;54.976;73.248;2022-09-24T14:42:11;100065.06;;;21.05;61.51
63819;BME280;49970;54.976;73.248;2022-09-24T14:44:44;100062.09;;;21.00;61.63
63819;BME280;49970;54.976;73.248;2022-09-24T14:47:32;100064.00;;;20.91;62.11
63819;BME280;49970;54.976;73.248;2022-09-24T14:49:59;100059.53;;;20.83;62.62
63819;BME280;49970;54.976;73.248;2022-09-24T14:52:34;100061.56;;;20.81;62.30
63819;BME280;49970;54.976;73.248;2022-09-24T14:55:14;100063.31;;;20.74;62.84
63819;BME280;49970;54.976;73.248;2022-09-24T14:57:42;100071.75;;;20.71;63.11
63819;BME280;49970;54.976;73.248;2022-09-24T15:00:31;100069.31;;;20.61;62.53
63819;BME280;49970;54.976;73.248;2022-09-24T15:03:03;100066.84;;;20.52;62.87
63819;BME280;49970;54.976;73.248;2022-09-24T15:05:31;100068.88;;;20.50;63.63
63819;BME280;49970;54.976;73.248;2022-09-24T15:08:15;100065.38;;;20.49;64.06
63819;BME280;49970;54.976;73.248;2022-09-24T15:11:03;100067.72;;;20.44;64.02
63819;BME280;49970;54.976;73.248;2022-09-24T15:13:36;100057.31;;;20.41;64.39
63819;BME280;49970;54.976;73.248;2022-09-24T15:16:42;100059.03;;;20.34;64.17
63819;BME280;49970;54.976;73.248;2022-09-24T15:19:16;100057.91;;;20.28;64.64
63819;BME280;49970;54.976;73.248;2022-09-24T15:21:46;100068.00;;;20.26;64.93
63819;BME280;49970;54.976;73.248;2022-09-24T15:24:23;100070.69;;;20.26;64.94
63819;BME280;49970;54.976;73.248;2022-09-24T15:27:05;100069.56;;;20.21;65.31